createdAt,value
2023-06-26T00:01:41.272Z,16.00
2023-06-26T00:04:08.722Z,16.00
2023-06-26T00:06:37.145Z,15.90
2023-06-26T00:09:04.161Z,15.80
2023-06-26T00:11:34.220Z,15.80
2023-06-26T00:14:02.462Z,15.70
2023-06-26T00:16:29.517Z,15.70
2023-06-26T00:18:56.477Z,15.70
2023-06-26T00:21:23.378Z,15.60
2023-06-26T00:23:50.248Z,15.60
2023-06-26T00:26:17.209Z,15.60
2023-06-26T00:28:44.204Z,15.60
2023-06-26T00:31:11.178Z,15.50
2023-06-26T00:33:38.034Z,15.40
2023-06-26T00:36:05.393Z,15.30
2023-06-26T00:38:32.592Z,15.30
2023-06-26T00:40:59.579Z,15.20
2023-06-26T00:43:26.461Z,15.20
2023-06-26T00:45:53.566Z,15.20
2023-06-26T00:48:20.556Z,15.20
2023-06-26T00:50:47.586Z,15.20
2023-06-26T00:53:14.609Z,15.20
2023-06-26T00:55:41.626Z,15.20
2023-06-26T00:58:08.712Z,15.20
2023-06-26T01:00:35.774Z,15.10
2023-06-26T01:03:03.002Z,15.10
2023-06-26T01:05:30.924Z,15.00
2023-06-26T01:08:00.057Z,15.00
2023-06-26T01:10:30.247Z,15.00
2023-06-26T01:12:58.754Z,15.00
2023-06-26T01:15:25.834Z,15.00
2023-06-26T01:17:53.596Z,15.00
2023-06-26T01:20:21.763Z,14.90
2023-06-26T01:23:10.108Z,14.90
2023-06-26T01:26:08.760Z,14.90
2023-06-26T01:28:40.017Z,14.90
2023-06-26T01:31:09.300Z,14.80
2023-06-26T01:33:37.412Z,14.80
2023-06-26T01:36:05.436Z,14.80
2023-06-26T01:38:32.335Z,14.80
2023-06-26T01:41:04.861Z,14.80
2023-06-26T01:43:55.979Z,14.70
2023-06-26T01:47:03.432Z,14.80
2023-06-26T01:49:52.035Z,14.80
2023-06-26T01:52:42.987Z,14.70
2023-06-26T01:55:28.199Z,14.70
2023-06-26T01:57:59.366Z,14.70
2023-06-26T02:00:27.877Z,14.70
2023-06-26T02:02:54.826Z,14.70
2023-06-26T02:05:22.000Z,14.60
2023-06-26T02:07:48.890Z,14.60
2023-06-26T02:10:16.040Z,14.60
2023-06-26T02:12:42.888Z,14.60
2023-06-26T02:15:10.290Z,14.60
2023-06-26T02:17:37.329Z,14.50
2023-06-26T02:20:04.811Z,14.50
2023-06-26T02:22:31.694Z,14.50
2023-06-26T02:24:58.642Z,14.50
2023-06-26T02:27:25.533Z,14.50
2023-06-26T02:29:52.939Z,14.50
2023-06-26T02:32:19.962Z,14.50
2023-06-26T02:34:46.856Z,14.40
2023-06-26T02:37:14.041Z,14.40
2023-06-26T02:39:40.950Z,14.40
2023-06-26T02:42:07.865Z,14.40
2023-06-26T02:44:34.742Z,14.20
2023-06-26T02:47:01.673Z,14.30
2023-06-26T02:49:28.641Z,14.00
2023-06-26T02:51:56.026Z,14.00
2023-06-26T02:54:22.986Z,14.00
2023-06-26T02:56:50.012Z,14.00
2023-06-26T02:59:16.971Z,14.00
2023-06-26T03:01:43.888Z,14.00
2023-06-26T03:04:11.692Z,14.00
2023-06-26T03:06:38.761Z,14.00
2023-06-26T03:09:05.758Z,14.00
2023-06-26T03:11:32.677Z,14.00
2023-06-26T03:13:59.587Z,14.00
2023-06-26T03:16:26.509Z,14.00
2023-06-26T03:18:53.416Z,14.00
2023-06-26T03:21:20.476Z,13.90
2023-06-26T03:23:47.473Z,13.90
2023-06-26T03:26:15.826Z,13.90
2023-06-26T03:28:45.557Z,13.90
2023-06-26T03:31:12.453Z,14.10
2023-06-26T03:33:39.773Z,14.00
2023-06-26T03:36:07.242Z,13.90
2023-06-26T03:38:34.167Z,14.00
2023-06-26T03:41:01.320Z,14.00
2023-06-26T03:43:28.210Z,14.00
2023-06-26T03:45:55.397Z,14.00
2023-06-26T03:48:22.360Z,14.00
2023-06-26T03:50:49.595Z,14.00
2023-06-26T03:53:16.583Z,14.00
2023-06-26T03:55:43.460Z,14.00
2023-06-26T03:58:10.471Z,14.10
2023-06-26T04:00:37.348Z,14.10
2023-06-26T04:03:05.284Z,14.20
2023-06-26T04:05:32.220Z,14.30
2023-06-26T04:07:59.117Z,14.40
2023-06-26T04:10:26.001Z,14.50
2023-06-26T04:12:53.024Z,14.60
2023-06-26T04:15:20.066Z,14.70
2023-06-26T04:17:46.979Z,14.80
2023-06-26T04:20:14.160Z,14.90
2023-06-26T04:22:41.124Z,15.00
2023-06-26T04:25:08.364Z,15.10
2023-06-26T04:27:36.757Z,15.20
2023-06-26T04:30:06.006Z,15.30
2023-06-26T04:32:33.026Z,15.40
2023-06-26T04:34:59.956Z,15.50
2023-06-26T04:37:27.570Z,15.60
2023-06-26T04:39:54.449Z,15.70
2023-06-26T04:42:22.882Z,15.80
2023-06-26T04:44:49.916Z,15.90
2023-06-26T04:47:17.110Z,16.00
2023-06-26T04:49:47.240Z,16.10
2023-06-26T04:52:15.126Z,16.30
2023-06-26T04:54:42.066Z,16.40
2023-06-26T04:57:10.148Z,16.50
2023-06-26T04:59:37.184Z,16.60
2023-06-26T05:02:06.091Z,16.70
2023-06-26T05:04:33.260Z,17.00
2023-06-26T05:07:00.569Z,17.40
2023-06-26T05:09:27.908Z,18.10
2023-06-26T05:11:54.851Z,19.00
2023-06-26T05:14:23.631Z,20.00
2023-06-26T05:16:52.260Z,20.90
2023-06-26T05:19:19.246Z,21.70
2023-06-26T05:21:47.307Z,22.40
2023-06-26T05:24:16.846Z,22.70
2023-06-26T05:26:44.179Z,22.90
2023-06-26T05:29:11.377Z,23.10
2023-06-26T05:31:42.992Z,23.40
2023-06-26T05:34:12.174Z,23.70
2023-06-26T05:36:40.459Z,24.00
2023-06-26T05:39:08.086Z,24.20
2023-06-26T05:41:35.341Z,24.40
2023-06-26T05:44:02.228Z,24.60
2023-06-26T05:46:29.188Z,24.70
2023-06-26T05:48:56.315Z,24.80
2023-06-26T05:51:23.522Z,24.80
2023-06-26T05:53:51.335Z,24.80
2023-06-26T05:56:19.749Z,24.70
2023-06-26T05:58:47.771Z,24.70
2023-06-26T06:01:15.052Z,24.80
2023-06-26T06:03:42.221Z,24.70
2023-06-26T06:06:09.274Z,24.70
2023-06-26T06:08:36.302Z,24.70
2023-06-26T06:11:03.304Z,24.80
2023-06-26T06:13:30.490Z,24.80
2023-06-26T06:15:57.499Z,25.00
2023-06-26T06:18:24.496Z,25.10
2023-06-26T06:20:51.499Z,25.20
2023-06-26T06:23:18.396Z,25.40
2023-06-26T06:25:45.355Z,25.60
2023-06-26T06:28:12.313Z,25.70
2023-06-26T06:30:45.675Z,25.70
2023-06-26T06:33:13.515Z,25.70
2023-06-26T06:35:40.600Z,25.70
2023-06-26T06:38:07.499Z,25.70
2023-06-26T06:40:34.424Z,25.70
2023-06-26T06:43:01.402Z,25.70
2023-06-26T06:45:28.362Z,25.70
2023-06-26T06:47:55.254Z,25.60
2023-06-26T06:50:22.406Z,25.50
2023-06-26T06:52:49.488Z,25.60
2023-06-26T06:55:16.371Z,25.50
2023-06-26T06:57:43.292Z,25.60
2023-06-26T07:00:14.916Z,25.60
2023-06-26T07:02:46.258Z,25.40
2023-06-26T07:05:14.155Z,24.90
2023-06-26T07:07:41.516Z,24.40
2023-06-26T07:10:14.841Z,23.90
2023-06-26T07:12:41.798Z,23.60
2023-06-26T07:15:09.339Z,23.60
2023-06-26T07:17:36.713Z,23.90
2023-06-26T07:20:09.549Z,24.20
2023-06-26T07:22:37.750Z,24.50
2023-06-26T07:25:05.994Z,24.80
2023-06-26T07:27:34.644Z,25.10
2023-06-26T07:30:01.911Z,25.50
2023-06-26T07:32:28.909Z,26.00
2023-06-26T07:34:55.810Z,26.60
2023-06-26T07:37:23.022Z,26.90
2023-06-26T07:39:51.206Z,27.20
2023-06-26T07:42:18.224Z,27.20
2023-06-26T07:44:45.355Z,27.20
2023-06-26T07:47:12.599Z,27.50
2023-06-26T07:49:40.749Z,27.90
2023-06-26T07:52:08.284Z,28.20
2023-06-26T07:54:35.203Z,28.00
2023-06-26T07:57:11.709Z,27.30
2023-06-26T07:59:38.663Z,26.50
2023-06-26T08:02:06.607Z,25.90
2023-06-26T08:04:34.808Z,25.40
2023-06-26T08:07:04.975Z,24.90
2023-06-26T08:09:32.628Z,24.70
2023-06-26T08:12:00.579Z,24.80
2023-06-26T08:14:27.711Z,25.10
2023-06-26T08:16:55.003Z,25.30
2023-06-26T08:19:21.903Z,25.10
2023-06-26T08:21:49.019Z,24.80
2023-06-26T08:24:20.000Z,24.50
2023-06-26T08:26:48.385Z,24.30
2023-06-26T08:29:16.171Z,24.50
2023-06-26T08:31:44.894Z,25.00
2023-06-26T08:34:12.042Z,25.30
2023-06-26T08:36:39.632Z,25.70
2023-06-26T08:39:07.029Z,26.60
2023-06-26T08:41:34.040Z,27.50
2023-06-26T08:44:01.938Z,28.10
2023-06-26T08:46:30.270Z,28.60
2023-06-26T08:49:10.592Z,29.00
2023-06-26T08:51:44.771Z,29.60
2023-06-26T08:54:18.322Z,30.20
2023-06-26T08:56:50.385Z,30.90
2023-06-26T08:59:17.972Z,31.20
2023-06-26T09:01:46.683Z,31.60
2023-06-26T09:04:13.964Z,31.50
2023-06-26T09:06:41.001Z,31.20
2023-06-26T09:09:08.782Z,30.60
2023-06-26T09:11:38.704Z,29.60
2023-06-26T09:14:08.241Z,28.90
2023-06-26T09:16:43.128Z,28.40
2023-06-26T09:19:13.966Z,28.00
2023-06-26T09:21:42.646Z,27.60
2023-06-26T09:24:11.215Z,27.10
2023-06-26T09:26:42.051Z,26.90
2023-06-26T09:29:14.694Z,26.80
2023-06-26T09:31:43.087Z,26.40
2023-06-26T09:34:10.625Z,26.00
2023-06-26T09:36:40.050Z,26.00
2023-06-26T09:39:13.058Z,26.10
2023-06-26T09:41:44.050Z,25.70
2023-06-26T09:44:15.170Z,25.30
2023-06-26T09:46:47.336Z,24.90
2023-06-26T09:49:14.441Z,24.80
2023-06-26T09:51:43.584Z,24.70
2023-06-26T09:54:11.637Z,24.40
2023-06-26T09:56:38.846Z,24.00
2023-06-26T09:59:08.226Z,23.90
2023-06-26T10:01:46.092Z,23.80
2023-06-26T10:04:13.607Z,24.20
2023-06-26T10:06:48.392Z,24.20
2023-06-26T10:09:19.223Z,24.20
2023-06-26T10:12:12.179Z,24.50
2023-06-26T10:14:44.189Z,25.50
2023-06-26T10:17:19.512Z,25.90
2023-06-26T10:19:48.491Z,25.80
2023-06-26T10:22:22.789Z,25.60
2023-06-26T10:24:52.006Z,25.90
2023-06-26T10:27:22.039Z,25.90
2023-06-26T10:30:01.386Z,25.60
2023-06-26T10:32:30.202Z,25.30
2023-06-26T10:34:58.595Z,25.40
2023-06-26T10:37:47.126Z,25.60
2023-06-26T10:40:21.748Z,25.90
2023-06-26T10:42:48.775Z,26.00
2023-06-26T10:45:22.219Z,25.70
2023-06-26T10:47:53.606Z,25.30
2023-06-26T10:50:31.894Z,24.90
2023-06-26T10:53:27.804Z,24.90
2023-06-26T10:56:03.762Z,25.70
2023-06-26T10:58:41.080Z,26.30
2023-06-26T11:01:25.351Z,26.80
2023-06-26T11:04:08.680Z,26.90
2023-06-26T11:06:41.409Z,26.40
2023-06-26T11:09:16.339Z,25.90
2023-06-26T11:11:55.178Z,25.70
2023-06-26T11:14:24.492Z,25.60
2023-06-26T11:16:52.324Z,25.60
2023-06-26T11:19:20.693Z,25.70
2023-06-26T11:21:48.461Z,25.70
2023-06-26T11:24:15.634Z,25.60
2023-06-26T11:26:47.621Z,25.40
2023-06-26T11:29:14.632Z,25.10
2023-06-26T11:31:43.348Z,25.10
2023-06-26T11:34:14.218Z,25.00
2023-06-26T11:36:44.104Z,25.10
2023-06-26T11:39:11.342Z,25.00
2023-06-26T11:41:40.624Z,24.80
2023-06-26T11:44:15.300Z,24.50
2023-06-26T11:46:42.863Z,24.40
2023-06-26T11:49:14.269Z,24.40
2023-06-26T11:51:41.907Z,24.60
2023-06-26T11:54:08.945Z,24.60
2023-06-26T11:56:35.963Z,24.70
2023-06-26T11:59:14.005Z,24.80
2023-06-26T12:01:42.243Z,24.70
2023-06-26T12:04:12.984Z,24.80
2023-06-26T12:06:47.856Z,24.90
2023-06-26T12:09:15.535Z,25.10
2023-06-26T12:11:45.743Z,25.20
2023-06-26T12:14:13.670Z,25.30
2023-06-26T12:16:43.389Z,25.40
2023-06-26T12:19:10.580Z,25.40
2023-06-26T12:21:45.216Z,25.40
2023-06-26T12:24:18.627Z,25.60
2023-06-26T12:26:48.778Z,25.70
2023-06-26T12:29:18.519Z,25.70
2023-06-26T12:31:50.510Z,25.90
2023-06-26T12:34:26.653Z,26.00
2023-06-26T12:36:53.773Z,26.10
2023-06-26T12:39:22.297Z,26.20
2023-06-26T12:42:09.550Z,26.20
2023-06-26T12:44:37.957Z,26.30
2023-06-26T12:47:05.235Z,26.30
2023-06-26T12:49:34.601Z,26.40
2023-06-26T12:52:04.207Z,26.40
2023-06-26T12:54:31.379Z,26.40
2023-06-26T12:56:58.977Z,26.40
2023-06-26T12:59:26.060Z,26.50
2023-06-26T13:01:53.370Z,26.60
2023-06-26T13:04:20.646Z,26.60
2023-06-26T13:06:47.666Z,26.80
2023-06-26T13:09:14.740Z,26.80
2023-06-26T13:11:43.979Z,27.00
2023-06-26T13:14:12.018Z,27.00
2023-06-26T13:16:41.521Z,26.90
2023-06-26T13:19:08.897Z,27.00
2023-06-26T13:21:36.368Z,27.20
2023-06-26T13:24:05.043Z,27.40
2023-06-26T13:29:03.610Z,27.20
2023-06-26T13:31:30.605Z,26.90
2023-06-26T13:34:00.064Z,26.60
2023-06-26T13:36:28.173Z,26.20
2023-06-26T13:38:57.906Z,25.90
2023-06-26T13:41:26.388Z,25.60
2023-06-26T13:43:55.595Z,25.40
2023-06-26T13:46:28.966Z,25.40
2023-06-26T13:48:55.984Z,25.60
2023-06-26T13:51:22.915Z,25.80
2023-06-26T13:53:49.869Z,25.70
2023-06-26T13:56:16.865Z,25.50
2023-06-26T13:58:43.943Z,25.20
2023-06-26T14:01:10.921Z,25.10
2023-06-26T14:03:38.106Z,25.00
2023-06-26T14:06:05.287Z,24.80
2023-06-26T14:08:32.392Z,24.70
2023-06-26T14:10:59.680Z,24.50
2023-06-26T14:13:26.592Z,24.40
2023-06-26T14:15:54.047Z,24.50
2023-06-26T14:18:24.669Z,24.70
2023-06-26T14:20:51.779Z,24.90
2023-06-26T14:23:18.817Z,25.00
2023-06-26T14:25:48.446Z,25.10
2023-06-26T14:28:16.532Z,25.10
2023-06-26T14:30:43.905Z,25.10
2023-06-26T14:33:11.093Z,24.80
2023-06-26T14:35:38.031Z,24.60
2023-06-26T14:38:04.951Z,24.20
2023-06-26T14:40:32.169Z,24.20
2023-06-26T14:42:59.754Z,24.30
2023-06-26T14:45:27.306Z,24.40
2023-06-26T14:47:54.707Z,24.50
2023-06-26T14:50:22.196Z,24.50
2023-06-26T14:52:49.374Z,24.60
2023-06-26T14:55:16.484Z,24.80
2023-06-26T14:57:43.484Z,25.10
2023-06-26T15:00:11.218Z,25.20
2023-06-26T15:02:38.462Z,25.40
2023-06-26T15:05:05.952Z,25.30
2023-06-26T15:07:32.915Z,25.20
2023-06-26T15:10:00.600Z,25.20
2023-06-26T15:12:28.541Z,25.20
2023-06-26T15:14:56.086Z,25.30
2023-06-26T15:17:22.963Z,25.20
2023-06-26T15:19:49.922Z,25.10
2023-06-26T15:22:19.809Z,25.20
2023-06-26T15:24:46.913Z,25.30
2023-06-26T15:27:14.507Z,25.40
2023-06-26T15:29:41.850Z,25.50
2023-06-26T15:32:09.447Z,25.70
2023-06-26T15:34:36.443Z,25.80
2023-06-26T15:37:03.665Z,25.70
2023-06-26T15:39:30.636Z,25.60
2023-06-26T15:41:57.677Z,25.60
2023-06-26T15:44:24.780Z,25.70
2023-06-26T15:46:52.092Z,25.50
2023-06-26T15:49:19.006Z,25.30
2023-06-26T15:51:46.491Z,25.10
2023-06-26T15:54:13.575Z,24.80
2023-06-26T15:56:41.098Z,24.40
2023-06-26T15:59:08.209Z,24.10
2023-06-26T16:01:36.018Z,23.90
2023-06-26T16:04:03.078Z,23.50
2023-06-26T16:06:30.064Z,23.50
2023-06-26T16:08:57.778Z,23.40
2023-06-26T16:11:24.712Z,23.50
2023-06-26T16:13:53.054Z,23.50
2023-06-26T16:16:20.004Z,23.50
2023-06-26T16:18:47.186Z,23.50
2023-06-26T16:21:14.524Z,23.50
2023-06-26T16:23:41.537Z,23.40
2023-06-26T16:26:08.488Z,23.40
2023-06-26T16:28:35.387Z,23.40
2023-06-26T16:31:02.376Z,23.40
2023-06-26T16:33:29.442Z,23.50
2023-06-26T16:35:56.440Z,23.50
2023-06-26T16:38:23.498Z,23.40
2023-06-26T16:40:50.441Z,23.40
2023-06-26T16:43:18.478Z,23.30
2023-06-26T16:45:45.518Z,23.10
2023-06-26T16:48:12.447Z,22.90
2023-06-26T16:50:39.716Z,22.60
2023-06-26T16:53:06.802Z,22.40
2023-06-26T16:55:33.978Z,22.20
2023-06-26T16:58:00.961Z,22.10
2023-06-26T17:00:27.917Z,22.10
2023-06-26T17:02:55.199Z,22.00
2023-06-26T17:05:22.199Z,21.90
2023-06-26T17:07:49.162Z,21.80
2023-06-26T17:10:16.150Z,21.80
2023-06-26T17:12:43.745Z,21.70
2023-06-26T17:15:11.190Z,21.70
2023-06-26T17:17:38.273Z,21.60
2023-06-26T17:20:10.346Z,21.60
2023-06-26T17:22:38.248Z,21.50
2023-06-26T17:25:06.110Z,21.40
2023-06-26T17:27:34.946Z,21.30
2023-06-26T17:30:02.282Z,21.30
2023-06-26T17:32:29.277Z,21.30
2023-06-26T17:34:57.599Z,21.20
2023-06-26T17:37:24.624Z,21.10
2023-06-26T17:39:52.798Z,21.00
2023-06-26T17:42:19.907Z,21.00
2023-06-26T17:44:47.007Z,20.90
2023-06-26T17:47:14.058Z,20.90
2023-06-26T17:49:41.521Z,20.80
2023-06-26T17:52:09.153Z,20.80
2023-06-26T17:54:36.263Z,20.70
2023-06-26T17:57:03.819Z,20.70
2023-06-26T17:59:30.846Z,20.60
2023-06-26T18:01:59.880Z,20.60
2023-06-26T18:04:27.308Z,20.50
2023-06-26T18:06:54.573Z,20.50
2023-06-26T18:09:21.675Z,20.40
2023-06-26T18:11:48.750Z,20.30
2023-06-26T18:14:16.059Z,20.30
2023-06-26T18:16:42.973Z,20.20
2023-06-26T18:19:09.972Z,20.10
2023-06-26T18:21:37.040Z,20.10
2023-06-26T18:24:04.545Z,20.10
2023-06-26T18:26:31.810Z,20.10
2023-06-26T18:28:58.787Z,20.20
2023-06-26T18:31:25.990Z,20.30
2023-06-26T18:33:54.212Z,20.30
2023-06-26T18:36:21.441Z,20.30
2023-06-26T18:38:48.418Z,20.30
2023-06-26T18:41:15.775Z,20.30
2023-06-26T18:43:48.597Z,20.20
2023-06-26T18:46:16.413Z,20.20
2023-06-26T18:48:43.590Z,20.10
2023-06-26T18:51:11.010Z,20.00
2023-06-26T18:53:40.672Z,19.90
2023-06-26T18:56:08.591Z,20.00
2023-06-26T18:58:37.706Z,19.80
2023-06-26T19:01:05.719Z,19.70
2023-06-26T19:03:32.786Z,19.70
2023-06-26T19:05:59.899Z,19.60
2023-06-26T19:08:27.153Z,19.60
2023-06-26T19:10:54.006Z,19.50
2023-06-26T19:13:21.026Z,19.50
2023-06-26T19:15:48.232Z,19.40
2023-06-26T19:18:15.246Z,19.30
2023-06-26T19:20:42.401Z,19.20
2023-06-26T19:23:09.282Z,19.20
2023-06-26T19:25:36.234Z,19.10
2023-06-26T19:28:03.299Z,19.00
2023-06-26T19:30:30.494Z,19.00
2023-06-26T19:32:57.706Z,18.90
2023-06-26T19:35:24.847Z,18.80
2023-06-26T19:38:03.212Z,18.70
2023-06-26T19:40:36.696Z,18.70
2023-06-26T19:43:04.962Z,18.60
2023-06-26T19:45:32.736Z,18.50
2023-06-26T19:48:00.021Z,18.30
2023-06-26T19:50:27.115Z,18.20
2023-06-26T19:52:54.545Z,18.10
2023-06-26T19:55:21.628Z,18.10
2023-06-26T19:57:49.583Z,17.90
2023-06-26T20:00:17.623Z,17.90
2023-06-26T20:02:44.891Z,17.80
2023-06-26T20:05:12.365Z,17.70
2023-06-26T20:07:42.415Z,17.60
2023-06-26T20:10:09.567Z,17.50
2023-06-26T20:12:36.797Z,17.40
2023-06-26T20:15:04.477Z,17.30
2023-06-26T20:17:32.441Z,17.30
2023-06-26T20:19:59.392Z,17.20
2023-06-26T20:22:26.341Z,17.10
2023-06-26T20:24:53.275Z,16.90
2023-06-26T20:27:21.683Z,16.70
2023-06-26T20:29:48.648Z,16.50
2023-06-26T20:32:15.663Z,16.30
2023-06-26T20:34:43.210Z,16.10
2023-06-26T20:37:10.266Z,15.90
2023-06-26T20:39:37.656Z,15.70
2023-06-26T20:42:05.425Z,15.60
2023-06-26T20:44:32.821Z,15.50
2023-06-26T20:47:09.760Z,15.40
2023-06-26T20:49:38.740Z,15.40
2023-06-26T20:52:11.988Z,15.30
2023-06-26T20:54:40.553Z,15.30
2023-06-26T20:57:10.387Z,15.20
2023-06-26T20:59:41.539Z,15.10
2023-06-26T21:02:08.640Z,14.90
2023-06-26T21:04:38.684Z,14.70
2023-06-26T21:07:07.689Z,14.60
2023-06-26T21:09:35.264Z,14.50
2023-06-26T21:12:02.861Z,14.40
2023-06-26T21:14:29.994Z,14.30
2023-06-26T21:16:57.035Z,14.30
2023-06-26T21:19:24.106Z,14.20
2023-06-26T21:21:51.265Z,14.20
2023-06-26T21:24:18.230Z,14.10
2023-06-26T21:26:45.220Z,14.10
2023-06-26T21:29:12.093Z,14.10
2023-06-26T21:31:38.989Z,14.00
2023-06-26T21:34:06.937Z,14.00
2023-06-26T21:36:33.889Z,14.00
2023-06-26T21:39:00.899Z,13.90
2023-06-26T21:41:28.135Z,13.80
2023-06-26T21:43:55.041Z,13.80
2023-06-26T21:46:22.032Z,13.80
2023-06-26T21:48:48.994Z,13.70
2023-06-26T21:51:15.874Z,13.60
2023-06-26T21:53:42.798Z,13.60
2023-06-26T21:56:09.784Z,13.50
2023-06-26T21:58:36.730Z,13.40
2023-06-26T22:01:03.683Z,13.30
2023-06-26T22:03:30.776Z,13.20
2023-06-26T22:05:57.709Z,13.20
2023-06-26T22:08:24.567Z,13.10
2023-06-26T22:10:51.480Z,13.00
2023-06-26T22:13:19.009Z,13.00
2023-06-26T22:15:45.895Z,12.90
2023-06-26T22:18:12.788Z,12.90
2023-06-26T22:20:40.520Z,12.90
2023-06-26T22:23:07.419Z,12.90
2023-06-26T22:25:34.503Z,12.80
2023-06-26T22:28:01.422Z,12.80
2023-06-26T22:30:28.405Z,12.80
2023-06-26T22:32:55.683Z,12.70
2023-06-26T22:35:22.605Z,12.70
2023-06-26T22:37:49.535Z,12.60
2023-06-26T22:40:17.111Z,12.50
2023-06-26T22:42:44.116Z,12.50
2023-06-26T22:45:12.781Z,12.50
2023-06-26T22:47:44.692Z,12.50
2023-06-26T22:50:11.782Z,12.40
2023-06-26T22:52:39.485Z,12.40
2023-06-26T22:55:06.918Z,12.30
2023-06-26T22:57:34.989Z,12.30
2023-06-26T23:00:01.899Z,12.30
2023-06-26T23:02:28.972Z,12.30
2023-06-26T23:04:55.985Z,12.30
2023-06-26T23:07:23.033Z,12.20
2023-06-26T23:09:50.238Z,12.20
2023-06-26T23:12:17.300Z,12.00
2023-06-26T23:14:44.523Z,12.00
2023-06-26T23:17:12.634Z,11.90
2023-06-26T23:19:41.659Z,11.90
2023-06-26T23:22:11.923Z,11.90
2023-06-26T23:24:41.594Z,11.80
2023-06-26T23:27:11.560Z,11.80
2023-06-26T23:29:39.860Z,11.70
2023-06-26T23:32:08.713Z,11.60
2023-06-26T23:34:39.750Z,11.50
2023-06-26T23:37:13.003Z,11.40
2023-06-26T23:39:43.250Z,11.30
2023-06-26T23:42:11.453Z,11.20
2023-06-26T23:44:38.956Z,11.10
2023-06-26T23:47:07.185Z,11.00
2023-06-26T23:49:36.551Z,11.00
2023-06-26T23:52:04.855Z,11.00
2023-06-26T23:54:32.487Z,11.00
2023-06-26T23:56:59.748Z,11.00
2023-06-26T23:59:26.840Z,11.00
